Time;durP1;ratioP1;P1;durP2;ratioP2;P2;SDS_P1;SDS_P2;PMS_P1;PMS_P2;Temp;Humidity;BMP_temperature;BMP_pressure;BME280_temperature;BME280_humidity;BME280_pressure;Samples;Min_cycle;Max_cycle;Signal;HPM_P1;HPM_P2
2023/01/08 00:02:16;;;;;;;16.07;6.53;;;;;;;0.52;nan;-23829.72;5019081;28;20206;-69
2023/01/08 00:04:42;;;;;;;24.70;7.90;;;;;;;0.78;nan;-23837.16;5017594;28;20246;-68
2023/01/08 00:07:08;;;;;;;12.07;5.57;;;;;;;0.78;nan;-23837.28;5017286;28;20268;-70
2023/01/08 00:09:33;;;;;;;13.27;7.50;;;;;;;0.29;nan;-23823.41;5018697;28;20577;-69
2023/01/08 00:11:59;;;;;;;13.50;5.63;;;;;;;0.73;nan;-23835.88;5017123;28;20189;-69
2023/01/08 00:14:24;;;;;;;7.07;4.67;;;;;;;0.47;nan;-23828.41;5019020;28;20239;-68
2023/01/08 00:16:50;;;;;;;12.73;6.73;;;;;;;0.65;nan;-23833.44;5016912;28;20193;-70
2023/01/08 00:19:16;;;;;;;7.87;4.80;;;;;;;0.40;nan;-23826.56;5020834;28;20580;-69
2023/01/08 00:21:41;;;;;;;13.93;5.93;;;;;;;0.14;nan;-23818.97;5017115;28;20184;-69
2023/01/08 00:24:07;;;;;;;7.43;5.53;;;;;;;0.13;nan;-23818.69;5017136;28;20185;-68
2023/01/08 00:26:32;;;;;;;7.50;4.83;;;;;;;0.56;nan;-23831.00;5020120;28;20573;-70
2023/01/08 00:28:58;;;;;;;9.87;5.03;;;;;;;0.24;nan;-23821.97;5015873;28;20550;-69
2023/01/08 00:31:23;;;;;;;10.57;5.43;;;;;;;0.12;nan;-23818.53;5019526;28;20235;-69
2023/01/08 00:33:49;;;;;;;10.80;6.57;;;;;;;0.09;nan;-23817.53;5016484;28;20208;-69
2023/01/08 00:36:17;;;;;;;14.13;5.57;;;;;;;0.26;nan;-23822.56;5017969;28;20184;-69
2023/01/08 00:38:43;;;;;;;7.30;4.90;;;;;;;-0.05;nan;-23813.69;5018191;28;20534;-70
2023/01/08 00:41:10;;;;;;;13.77;6.10;;;;;;;0.15;nan;-23819.41;5016918;28;20223;-69
2023/01/08 00:43:36;;;;;;;11.77;5.47;;;;;;;0.33;nan;-23824.56;5018143;28;20174;-69
2023/01/08 00:46:01;;;;;;;12.93;6.03;;;;;;;-0.03;nan;-23814.38;5016608;28;20197;-69
2023/01/08 00:48:27;;;;;;;8.47;4.63;;;;;;;0.31;nan;-23823.84;5016256;28;20189;-69
2023/01/08 00:50:53;;;;;;;13.73;6.13;;;;;;;0.37;nan;-23825.56;5016055;28;20235;-69
2023/01/08 00:53:20;;;;;;;13.07;5.50;;;;;;;0.38;nan;-23825.84;5020532;28;20234;-69
2023/01/08 00:55:45;;;;;;;10.33;4.90;;;;;;;0.42;nan;-23827.00;5016977;28;20178;-69
2023/01/08 00:58:11;;;;;;;11.57;4.80;;;;;;;0.33;nan;-23824.56;5016564;28;20280;-69
2023/01/08 01:00:37;;;;;;;5.83;3.87;;;;;;;-0.03;nan;-23814.38;5017897;28;20236;-69
2023/01/08 01:03:02;;;;;;;10.47;5.13;;;;;;;0.21;nan;-23820.97;5016782;28;20186;-68
2023/01/08 01:05:28;;;;;;;8.93;4.63;;;;;;;0.23;nan;-23821.56;5018471;28;20385;-69
2023/01/08 01:07:53;;;;;;;8.57;5.77;;;;;;;-0.22;nan;-23808.94;5016425;28;20185;-69
2023/01/08 01:10:19;;;;;;;10.40;5.57;;;;;;;0.28;nan;-23823.13;5017458;28;20639;-69
2023/01/08 01:12:44;;;;;;;9.53;4.83;;;;;;;0.32;nan;-23824.13;5016454;28;20691;-69
2023/01/08 01:15:13;;;;;;;9.37;5.37;;;;;;;-0.15;nan;-23810.81;5016409;28;20184;-69
2023/01/08 01:17:41;;;;;;;7.83;5.43;;;;;;;-0.07;nan;-23813.25;5017730;28;20221;-68
2023/01/08 01:20:08;;;;;;;9.07;4.83;;;;;;;-0.01;nan;-23814.81;5018377;28;20300;-69
2023/01/08 01:22:34;;;;;;;11.10;7.03;;;;;;;-0.10;nan;-23812.25;5018026;28;20230;-68
2023/01/08 01:25:00;;;;;;;12.43;6.47;;;;;;;-0.09;nan;-23812.66;5015872;28;20600;-70
2023/01/08 01:27:25;;;;;;;7.90;5.57;;;;;;;-0.11;nan;-23811.97;5018247;28;20181;-70
2023/01/08 01:29:51;;;;;;;7.40;4.90;;;;;;;-0.06;nan;-23813.53;5012171;28;20204;-69
2023/01/08 01:32:17;;;;;;;10.20;5.70;;;;;;;0.36;nan;-23825.28;5019224;28;20260;-69
2023/01/08 01:34:42;;;;;;;9.93;5.27;;;;;;;-0.03;nan;-23814.38;5017216;28;20275;-69
2023/01/08 01:37:11;;;;;;;10.07;5.00;;;;;;;-0.01;nan;-23814.97;5016700;28;20205;-69
2023/01/08 01:39:37;;;;;;;11.23;5.33;;;;;;;-0.05;nan;-23813.69;5011505;28;20204;-69
2023/01/08 01:42:02;;;;;;;8.30;5.00;;;;;;;-0.16;nan;-23810.53;5010167;28;20181;-68
2023/01/08 01:44:39;;;;;;;15.03;6.63;;;;;;;0.35;nan;-23825.13;5013909;28;20188;-68
2023/01/08 01:47:20;;;;;;;11.00;5.53;;;;;;;0.36;nan;-23825.41;5014842;28;20596;-68
2023/01/08 01:50:21;;;;;;;12.70;5.00;;;;;;;0.33;nan;-23824.41;5014460;28;20185;-68
2023/01/08 01:53:07;;;;;;;19.63;6.80;;;;;;;-0.01;nan;-23814.97;4995130;28;20201;-69
2023/01/08 01:55:34;;;;;;;12.20;6.87;;;;;;;0.37;nan;-23825.56;4995106;28;20173;-69
2023/01/08 01:58:16;;;;;;;12.90;6.17;;;;;;;-0.11;nan;-23811.97;4994721;28;20176;-69
2023/01/08 02:00:43;;;;;;;11.73;6.03;;;;;;;-0.06;nan;-23813.53;4994337;28;20201;-69
2023/01/08 02:03:11;;;;;;;9.23;4.90;;;;;;;0.31;nan;-23823.84;4995547;28;20171;-69
2023/01/08 02:05:49;;;;;;;13.10;5.23;;;;;;;0.25;nan;-23822.13;4995579;28;20304;-69
2023/01/08 02:08:29;;;;;;;11.47;4.40;;;;;;;0.31;nan;-23824.00;4995433;28;20300;-69
2023/01/08 02:11:01;;;;;;;13.97;7.20;;;;;;;-0.18;nan;-23810.09;4995205;28;20180;-69
2023/01/08 02:13:39;;;;;;;12.93;5.80;;;;;;;0.10;nan;-23817.81;4995686;28;20213;-69
2023/01/08 02:16:23;;;;;;;8.20;5.63;;;;;;;0.27;nan;-23822.69;4994197;28;20199;-69
2023/01/08 02:19:01;;;;;;;10.07;5.67;;;;;;;0.28;nan;-23822.97;5006044;28;20220;-68
2023/01/08 02:21:35;;;;;;;15.47;6.23;;;;;;;0.31;nan;-23823.84;5007690;28;20179;-68
2023/01/08 02:24:41;;;;;;;7.33;4.57;;;;;;;0.24;nan;-23821.84;5014606;28;20315;-69
2023/01/08 02:27:08;;;;;;;10.20;6.37;;;;;;;0.07;nan;-23816.97;5016723;28;20339;-69
2023/01/08 02:29:34;;;;;;;9.20;5.17;;;;;;;-0.21;nan;-23809.09;5022453;28;20180;-69
2023/01/08 02:32:00;;;;;;;7.87;5.13;;;;;;;0.17;nan;-23819.84;5018370;28;20178;-69
2023/01/08 02:34:26;;;;;;;17.40;6.53;;;;;;;-0.09;nan;-23812.66;5014680;28;20177;-69
2023/01/08 02:36:53;;;;;;;7.90;4.97;;;;;;;0.03;nan;-23815.81;5014325;28;20204;-69
2023/01/08 02:39:45;;;;;;;12.63;5.70;;;;;;;0.13;nan;-23818.84;5014299;28;20201;-69
2023/01/08 02:42:53;;;;;;;6.80;4.00;;;;;;;0.30;nan;-23823.56;5014566;28;20177;-69
2023/01/08 02:45:42;;;;;;;13.47;4.53;;;;;;;-0.11;nan;-23812.09;5019795;28;20581;-68
2023/01/08 02:48:32;;;;;;;9.83;4.53;;;;;;;0.21;nan;-23821.13;5014015;28;20185;-69
2023/01/08 02:51:22;;;;;;;9.27;5.57;;;;;;;-0.08;nan;-23812.81;5014360;28;20185;-69
2023/01/08 02:53:52;;;;;;;9.60;5.07;;;;;;;-0.17;nan;-23810.25;5014145;28;20210;-69
2023/01/08 02:56:26;;;;;;;9.67;5.00;;;;;;;0.10;nan;-23817.81;5018907;28;20179;-70
2023/01/08 02:58:53;;;;;;;12.40;4.93;;;;;;;-1.27;nan;-23779.00;5013879;28;20238;-69
2023/01/08 03:01:21;;;;;;;9.20;6.40;;;;;;;0.06;nan;-23816.81;5012321;28;20215;-69
2023/01/08 03:03:52;;;;;;;7.70;5.77;;;;;;;0.04;nan;-23816.25;5044963;28;20250;-70
2023/01/08 03:06:20;;;;;;;7.03;4.70;;;;;;;0.00;nan;-23815.09;5013684;28;20558;-69
2023/01/08 03:08:47;;;;;;;12.73;4.70;;;;;;;0.05;nan;-23816.53;5014000;28;20186;-69
2023/01/08 03:11:16;;;;;;;6.57;4.77;;;;;;;-0.34;nan;-23805.50;5013598;28;20186;-69
2023/01/08 03:13:48;;;;;;;15.13;5.83;;;;;;;-0.36;nan;-23804.94;5013666;28;20208;-69
2023/01/08 03:16:18;;;;;;;11.87;6.03;;;;;;;-0.03;nan;-23814.25;5013549;28;20180;-69
2023/01/08 03:18:48;;;;;;;16.53;5.77;;;;;;;-0.10;nan;-23812.38;5013836;28;20172;-69
2023/01/08 03:21:16;;;;;;;5.30;4.40;;;;;;;-0.05;nan;-23813.81;5014103;28;20212;-69
2023/01/08 03:23:45;;;;;;;10.37;5.87;;;;;;;-0.51;nan;-23800.78;5013485;28;20173;-69
2023/01/08 03:26:14;;;;;;;15.70;5.43;;;;;;;-0.15;nan;-23810.97;5017882;28;20640;-69
2023/01/08 03:28:50;;;;;;;7.73;4.87;;;;;;;-0.15;nan;-23810.97;5019299;28;20191;-69
2023/01/08 03:31:18;;;;;;;9.07;5.23;;;;;;;-0.17;nan;-23810.38;5017742;28;20209;-69
2023/01/08 03:33:45;;;;;;;9.70;5.43;;;;;;;-0.29;nan;-23806.94;5017830;28;20290;-69
2023/01/08 03:36:15;;;;;;;8.07;5.17;;;;;;;-0.09;nan;-23812.53;5017982;28;20190;-69
2023/01/08 03:38:55;;;;;;;9.40;5.50;;;;;;;-0.18;nan;-23810.09;5019395;28;20180;-69
2023/01/08 03:41:23;;;;;;;9.67;5.33;;;;;;;-0.66;nan;-23796.34;5018407;28;20278;-69
2023/01/08 03:43:49;;;;;;;8.87;4.87;;;;;;;-0.22;nan;-23808.94;5018068;28;20265;-69
2023/01/08 03:46:27;;;;;;;6.30;4.23;;;;;;;-0.46;nan;-23802.06;5018102;28;20204;-69
2023/01/08 03:48:55;;;;;;;11.57;6.00;;;;;;;-0.23;nan;-23808.53;5013610;28;20163;-69
2023/01/08 03:51:20;;;;;;;7.60;4.30;;;;;;;-0.50;nan;-23801.06;5016289;28;20184;-69
2023/01/08 03:53:48;;;;;;;10.70;5.73;;;;;;;-0.74;nan;-23794.19;5018321;28;20274;-69
2023/01/08 03:56:14;;;;;;;8.27;4.27;;;;;;;-0.30;nan;-23806.66;5017416;28;20184;-70
2023/01/08 03:58:40;;;;;;;6.57;4.83;;;;;;;-0.28;nan;-23807.22;5019168;28;20216;-69
2023/01/08 04:01:05;;;;;;;10.77;5.60;;;;;;;-0.20;nan;-23809.38;5016958;28;20239;-69
2023/01/08 04:03:31;;;;;;;7.97;4.57;;;;;;;-0.41;nan;-23803.50;5019020;28;20180;-69
2023/01/08 04:05:58;;;;;;;6.63;4.60;;;;;;;-0.30;nan;-23806.66;5017257;28;20253;-69
2023/01/08 04:08:24;;;;;;;6.20;4.23;;;;;;;-0.84;nan;-23791.19;5018652;28;20244;-69
2023/01/08 04:10:49;;;;;;;17.10;5.57;;;;;;;-0.34;nan;-23805.50;5017693;28;20196;-69
2023/01/08 04:13:15;;;;;;;8.43;4.50;;;;;;;-1.30;nan;-23778.28;5016379;28;20180;-70
2023/01/08 04:15:45;;;;;;;6.47;4.40;;;;;;;-0.43;nan;-23802.78;5016884;28;20176;-69
2023/01/08 04:18:11;;;;;;;4.73;4.33;;;;;;;-0.39;nan;-23803.94;5017043;28;20195;-69
2023/01/08 04:20:36;;;;;;;7.23;4.43;;;;;;;-0.81;nan;-23792.19;5017143;28;20229;-69
2023/01/08 04:23:02;;;;;;;8.90;4.20;;;;;;;-0.39;nan;-23803.94;5016644;28;20176;-69
2023/01/08 04:25:27;;;;;;;7.17;4.80;;;;;;;-0.47;nan;-23801.78;5019051;28;20178;-69
2023/01/08 04:27:52;;;;;;;6.17;3.53;;;;;;;-0.33;nan;-23805.66;5016748;28;20263;-69
2023/01/08 04:30:18;;;;;;;8.60;5.27;;;;;;;-0.80;nan;-23792.31;5016922;28;20294;-69
2023/01/08 04:32:43;;;;;;;11.07;3.70;;;;;;;-0.96;nan;-23788.03;5018203;28;20202;-71
2023/01/08 04:35:09;;;;;;;6.57;4.10;;;;;;;-0.81;nan;-23792.03;5016748;28;20184;-69
2023/01/08 04:37:34;;;;;;;6.37;4.40;;;;;;;-0.64;nan;-23796.91;5018086;28;20179;-69
2023/01/08 04:39:59;;;;;;;5.80;3.60;;;;;;;-0.98;nan;-23787.44;5015840;28;20207;-69
2023/01/08 04:42:25;;;;;;;8.13;3.97;;;;;;;-0.58;nan;-23798.63;5016318;28;20182;-69
2023/01/08 04:44:50;;;;;;;2.80;2.60;;;;;;;-0.91;nan;-23789.47;5017428;28;20375;-69
2023/01/08 04:47:16;;;;;;;5.60;3.03;;;;;;;-0.66;nan;-23796.47;5016649;28;20202;-69
2023/01/08 04:49:41;;;;;;;7.40;3.13;;;;;;;-0.88;nan;-23790.03;5014138;28;20208;-69
2023/01/08 04:52:07;;;;;;;5.23;3.57;;;;;;;-0.79;nan;-23792.63;5018770;28;20236;-69
2023/01/08 04:54:32;;;;;;;8.17;2.77;;;;;;;-0.93;nan;-23788.88;5016515;28;20178;-68
2023/01/08 04:56:57;;;;;;;2.97;2.67;;;;;;;-1.41;nan;-23775.13;5016675;28;20220;-68
2023/01/08 04:59:23;;;;;;;6.00;3.70;;;;;;;-1.45;nan;-23773.97;5015987;28;20187;-69
2023/01/08 05:01:48;;;;;;;4.80;2.97;;;;;;;-1.23;nan;-23780.28;5020617;28;20178;-69
2023/01/08 05:04:14;;;;;;;4.03;2.30;;;;;;;-0.89;nan;-23789.88;5021676;28;20230;-69
2023/01/08 05:06:39;;;;;;;3.83;2.80;;;;;;;-1.06;nan;-23785.16;5018285;28;20189;-69
2023/01/08 05:09:04;;;;;;;4.40;3.10;;;;;;;-1.12;nan;-23783.44;5015683;28;20645;-69
2023/01/08 05:11:30;;;;;;;3.40;3.10;;;;;;;-1.08;nan;-23784.59;5018783;28;20201;-69
2023/01/08 05:13:55;;;;;;;3.30;2.80;;;;;;;-1.05;nan;-23785.44;5015775;28;20173;-69
2023/01/08 05:16:22;;;;;;;3.70;3.10;;;;;;;-1.52;nan;-23772.09;5014288;28;20199;-69
2023/01/08 05:18:48;;;;;;;3.77;3.03;;;;;;;-1.06;nan;-23785.16;5017732;28;20269;-70
2023/01/08 05:21:14;;;;;;;3.57;2.83;;;;;;;-1.04;nan;-23785.59;5020828;28;20289;-69
2023/01/08 05:23:44;;;;;;;3.07;2.33;;;;;;;-1.34;nan;-23777.13;5022259;28;20177;-69
2023/01/08 05:26:09;;;;;;;8.00;3.17;;;;;;;-1.26;nan;-23779.41;5018926;28;20668;-69
2023/01/08 05:28:35;;;;;;;3.10;2.80;;;;;;;-1.42;nan;-23774.81;5021727;28;20211;-69
2023/01/08 05:31:00;;;;;;;3.87;3.37;;;;;;;-0.96;nan;-23787.88;5018648;28;20209;-69
2023/01/08 05:33:26;;;;;;;5.53;2.73;;;;;;;-1.53;nan;-23771.69;5021120;28;20255;-69
2023/01/08 05:35:51;;;;;;;2.90;2.60;;;;;;;-1.50;nan;-23772.69;5018655;28;20192;-68
2023/01/08 05:38:17;;;;;;;4.50;2.63;;;;;;;-1.16;nan;-23782.28;5020165;28;20185;-69
2023/01/08 05:40:42;;;;;;;3.43;2.27;;;;;;;-1.33;nan;-23777.41;5021507;28;20281;-69
2023/01/08 05:43:08;;;;;;;5.87;3.47;;;;;;;-1.23;nan;-23780.28;5020060;28;20188;-68
2023/01/08 05:45:34;;;;;;;3.63;2.40;;;;;;;-1.47;nan;-23773.53;5022168;28;20186;-69
2023/01/08 05:48:03;;;;;;;7.40;2.93;;;;;;;-1.44;nan;-23774.41;5020200;28;20190;-69
2023/01/08 05:50:29;;;;;;;5.27;2.83;;;;;;;-1.07;nan;-23784.72;5023745;28;20180;-68
2023/01/08 05:52:54;;;;;;;6.37;4.00;;;;;;;-1.61;nan;-23769.38;5018409;28;20247;-69
2023/01/08 05:55:20;;;;;;;5.03;2.83;;;;;;;-1.21;nan;-23780.84;5017780;28;20177;-68
2023/01/08 05:57:45;;;;;;;5.77;3.87;;;;;;;-1.73;nan;-23765.94;5016948;28;20213;-69
2023/01/08 06:00:11;;;;;;;5.67;3.63;;;;;;;-1.32;nan;-23777.69;5021860;28;20292;-70
2023/01/08 06:02:37;;;;;;;8.87;3.40;;;;;;;-1.17;nan;-23782.00;5020465;28;20239;-69
2023/01/08 06:05:03;;;;;;;4.50;3.87;;;;;;;-1.63;nan;-23768.81;5018126;28;20236;-71
2023/01/08 06:07:29;;;;;;;7.47;3.63;;;;;;;-1.51;nan;-23772.38;5021313;28;20189;-69
2023/01/08 06:09:54;;;;;;;5.20;3.43;;;;;;;-1.23;nan;-23780.13;5020109;28;20213;-69
2023/01/08 06:12:20;;;;;;;3.40;2.60;;;;;;;-1.17;nan;-23782.00;5018834;28;20233;-69
2023/01/08 06:14:45;;;;;;;7.87;3.30;;;;;;;-1.03;nan;-23785.88;5021012;28;20273;-70
2023/01/08 06:17:11;;;;;;;2.93;2.73;;;;;;;-1.04;nan;-23785.59;5018963;28;20653;-69
2023/01/08 06:19:38;;;;;;;6.10;3.30;;;;;;;-1.41;nan;-23775.13;5021510;28;20615;-70
2023/01/08 06:22:04;;;;;;;5.27;2.93;;;;;;;-0.94;nan;-23788.59;5019184;28;20184;-68
2023/01/08 06:24:29;;;;;;;4.10;2.70;;;;;;;-0.88;nan;-23790.03;5019256;28;20540;-68
2023/01/08 06:26:54;;;;;;;4.93;3.77;;;;;;;-0.72;nan;-23794.63;5020896;28;20264;-69
2023/01/08 06:29:20;;;;;;;6.50;3.37;;;;;;;-1.16;nan;-23782.28;5018756;28;20291;-71
2023/01/08 06:31:45;;;;;;;5.13;3.40;;;;;;;-0.63;nan;-23797.19;5020653;28;20648;-70
2023/01/08 06:34:11;;;;;;;4.23;2.93;;;;;;;-0.40;nan;-23803.78;5018904;28;20218;-70
2023/01/08 06:36:36;;;;;;;3.33;3.03;;;;;;;-0.82;nan;-23791.75;5020072;28;20180;-69
2023/01/08 06:39:04;;;;;;;5.73;4.03;;;;;;;-0.76;nan;-23793.63;5020069;28;20540;-70
2023/01/08 06:41:30;;;;;;;7.13;3.53;;;;;;;-0.77;nan;-23793.19;5019211;28;20246;-69
2023/01/08 06:43:56;;;;;;;6.37;3.50;;;;;;;-0.08;nan;-23812.81;5016851;28;20211;-71
2023/01/08 06:46:21;;;;;;;5.50;3.20;;;;;;;-0.50;nan;-23801.06;5018485;28;20729;-69
2023/01/08 06:48:46;;;;;;;7.03;3.10;;;;;;;-0.38;nan;-23804.38;5018693;28;20176;-69
2023/01/08 06:51:12;;;;;;;4.60;2.93;;;;;;;-0.33;nan;-23805.66;5018379;28;20644;-69
2023/01/08 06:53:37;;;;;;;8.10;3.77;;;;;;;0.02;nan;-23815.53;5024805;28;20222;-69
2023/01/08 06:56:03;;;;;;;5.93;4.37;;;;;;;0.18;nan;-23820.25;5024049;28;20187;-69
2023/01/08 06:58:29;;;;;;;7.57;4.30;;;;;;;0.33;nan;-23824.56;5019276;28;20205;-69
2023/01/08 07:00:54;;;;;;;7.10;3.93;;;;;;;0.36;nan;-23825.41;5019191;28;20679;-69
2023/01/08 07:03:20;;;;;;;10.27;2.60;;;;;;;0.29;nan;-23823.28;5013731;28;20180;-69
2023/01/08 07:05:45;;;;;;;8.30;4.13;;;;;;;0.19;nan;-23820.41;5022040;28;20221;-70
2023/01/08 07:08:15;;;;;;;4.60;3.83;;;;;;;0.70;nan;-23834.84;5017594;28;20185;-71
2023/01/08 07:10:41;;;;;;;6.30;4.23;;;;;;;0.71;nan;-23835.28;5016173;28;20186;-70
2023/01/08 07:13:07;;;;;;;6.50;3.87;;;;;;;0.52;nan;-23829.84;5017639;28;20201;-70
2023/01/08 07:15:36;;;;;;;4.90;3.80;;;;;;;1.03;nan;-23844.31;5020067;28;20182;-73
2023/01/08 07:18:06;;;;;;;4.73;3.50;;;;;;;1.34;nan;-23853.16;5015282;28;20183;-68
2023/01/08 07:20:33;;;;;;;8.47;4.27;;;;;;;1.38;nan;-23854.03;5047888;28;20226;-71
2023/01/08 07:23:08;;;;;;;8.47;4.53;;;;;;;1.32;nan;-23852.44;5015984;28;20185;-70
2023/01/08 07:25:33;;;;;;;8.43;4.10;;;;;;;1.53;nan;-23858.44;5016889;28;20193;-69
2023/01/08 07:27:59;;;;;;;5.20;4.23;;;;;;;1.55;nan;-23859.03;5012044;28;20183;-68
2023/01/08 07:30:29;;;;;;;7.50;4.00;;;;;;;1.71;nan;-23863.47;5016475;28;20194;-69
2023/01/08 07:33:00;;;;;;;6.83;4.03;;;;;;;1.88;nan;-23868.16;5015263;28;20180;-69
2023/01/08 07:35:26;;;;;;;7.97;4.80;;;;;;;1.99;nan;-23871.31;5018184;28;20191;-69
2023/01/08 07:37:51;;;;;;;6.83;4.20;;;;;;;1.64;nan;-23861.47;5024071;28;20568;-69
2023/01/08 07:40:17;;;;;;;8.23;4.13;;;;;;;2.36;nan;-23881.88;5021987;28;20207;-71
2023/01/08 07:42:42;;;;;;;6.27;4.27;;;;;;;2.28;nan;-23879.44;5016149;28;20190;-69
2023/01/08 07:45:08;;;;;;;6.53;4.50;;;;;;;2.05;nan;-23873.03;5018276;28;20184;-68
2023/01/08 07:47:33;;;;;;;6.90;3.80;;;;;;;2.39;nan;-23882.75;5016920;28;20180;-69
2023/01/08 07:49:59;;;;;;;6.20;4.70;;;;;;;2.37;nan;-23882.16;5017186;28;20235;-70
2023/01/08 07:52:24;;;;;;;5.00;2.73;;;;;;;2.09;nan;-23874.31;5017630;28;20186;-70
2023/01/08 07:54:50;;;;;;;4.77;3.53;;;;;;;2.25;nan;-23878.59;5012245;28;20180;-69
2023/01/08 07:57:15;;;;;;;6.60;3.57;;;;;;;2.70;nan;-23891.44;5012357;28;20259;-73
2023/01/08 07:59:40;;;;;;;5.00;3.40;;;;;;;2.50;nan;-23885.88;5012554;28;20204;-72
2023/01/08 08:02:06;;;;;;;7.87;4.00;;;;;;;2.84;nan;-23895.44;5012201;28;20176;-71
2023/01/08 08:04:32;;;;;;;7.60;3.60;;;;;;;2.32;nan;-23880.75;5012096;28;20274;-73
2023/01/08 08:06:57;;;;;;;5.47;3.50;;;;;;;2.93;nan;-23897.88;5010982;28;20731;-70
2023/01/08 08:09:23;;;;;;;7.67;4.23;;;;;;;2.99;nan;-23899.56;5012347;28;20179;-71
2023/01/08 08:11:48;;;;;;;9.73;3.57;;;;;;;2.86;nan;-23896.00;5012350;28;20288;-70
2023/01/08 08:14:13;;;;;;;7.47;4.30;;;;;;;3.35;nan;-23909.69;5011229;28;20175;-70
2023/01/08 08:16:39;;;;;;;5.83;3.90;;;;;;;3.52;nan;-23914.53;5010779;28;20544;-70
2023/01/08 08:19:04;;;;;;;5.77;4.03;;;;;;;3.23;nan;-23906.28;5012168;28;20176;-70
2023/01/08 08:21:30;;;;;;;8.50;4.73;;;;;;;3.65;nan;-23918.13;5016400;28;20222;-70
2023/01/08 08:23:56;;;;;;;5.97;3.93;;;;;;;3.72;nan;-23920.09;5011653;28;20191;-70
2023/01/08 08:26:22;;;;;;;9.80;3.77;;;;;;;3.78;nan;-23921.97;5011919;28;20176;-70
2023/01/08 08:28:48;;;;;;;9.03;4.33;;;;;;;3.58;nan;-23916.25;5012114;28;20212;-70
2023/01/08 08:31:14;;;;;;;5.40;3.83;;;;;;;3.81;nan;-23922.81;5011959;28;20257;-70
2023/01/08 08:33:39;;;;;;;5.90;4.13;;;;;;;3.89;nan;-23924.94;5011892;28;20537;-70
2023/01/08 08:36:05;;;;;;;5.33;3.47;;;;;;;4.45;nan;-23940.75;5011546;28;20590;-70
2023/01/08 08:38:31;;;;;;;6.73;4.70;;;;;;;4.62;nan;-23945.47;5011654;28;20164;-70
2023/01/08 08:40:57;;;;;;;9.20;4.40;;;;;;;4.43;nan;-23940.34;5011102;28;20207;-70
2023/01/08 08:43:22;;;;;;;5.53;4.07;;;;;;;4.68;nan;-23947.16;5011657;28;20602;-71
2023/01/08 08:45:47;;;;;;;6.73;4.23;;;;;;;5.16;nan;-23960.81;5011704;28;20558;-71
2023/01/08 08:48:15;;;;;;;10.47;3.87;;;;;;;5.29;nan;-23964.50;5010991;28;20207;-70
2023/01/08 08:50:41;;;;;;;11.00;5.90;;;;;;;5.03;nan;-23957.13;5015678;28;20205;-69
2023/01/08 08:53:07;;;;;;;9.03;4.50;;;;;;;5.20;nan;-23961.97;5015415;28;20617;-70
2023/01/08 08:55:33;;;;;;;8.87;5.30;;;;;;;5.39;nan;-23967.06;5017699;28;20187;-69
2023/01/08 08:58:09;;;;;;;8.20;4.83;;;;;;;5.80;nan;-23978.72;5016278;28;20191;-72
2023/01/08 09:00:35;;;;;;;4.23;3.13;;;;;;;5.68;nan;-23975.47;5015593;28;20194;-70
2023/01/08 09:03:01;;;;;;;6.53;4.03;;;;;;;6.07;nan;-23986.41;5016247;28;20270;-69
2023/01/08 09:05:27;;;;;;;4.53;3.53;;;;;;;6.02;nan;-23984.97;5017852;28;20310;-70
2023/01/08 09:07:53;;;;;;;4.73;3.80;;;;;;;5.96;nan;-23983.28;5015563;28;20238;-70
2023/01/08 09:10:19;;;;;;;6.17;4.00;;;;;;;6.47;nan;-23997.47;5018998;28;20755;-71
2023/01/08 09:12:44;;;;;;;6.50;4.00;;;;;;;6.17;nan;-23989.09;5016302;28;20712;-71
2023/01/08 09:15:10;;;;;;;4.33;2.97;;;;;;;6.54;nan;-23999.47;5016072;28;20176;-71
2023/01/08 09:17:36;;;;;;;6.40;3.33;;;;;;;6.44;nan;-23996.63;5017392;28;20201;-71
2023/01/08 09:20:03;;;;;;;6.00;3.80;;;;;;;6.61;nan;-24001.59;5015624;28;20254;-71
2023/01/08 09:22:28;;;;;;;4.27;3.40;;;;;;;6.72;nan;-24004.56;5015877;28;20242;-71
2023/01/08 09:24:54;;;;;;;4.47;3.37;;;;;;;6.55;nan;-23999.91;5014918;28;20180;-71
2023/01/08 09:27:19;;;;;;;5.97;3.73;;;;;;;6.76;nan;-24005.56;5017059;28;20211;-70
2023/01/08 09:29:46;;;;;;;5.03;3.50;;;;;;;7.28;nan;-24020.19;5016311;28;20187;-71
2023/01/08 09:32:12;;;;;;;6.20;3.87;;;;;;;7.15;nan;-24016.50;5016691;28;20207;-71
2023/01/08 09:34:37;;;;;;;5.80;3.40;;;;;;;6.77;nan;-24005.84;5016409;28;20587;-69
2023/01/08 09:37:03;;;;;;;4.43;3.17;;;;;;;7.04;nan;-24013.50;5015951;28;20229;-69
2023/01/08 09:39:29;;;;;;;6.67;3.60;;;;;;;6.98;nan;-24011.94;5012360;28;20188;-69
2023/01/08 09:41:57;;;;;;;5.90;3.50;;;;;;;7.60;nan;-24029.25;5010751;28;20198;-69
2023/01/08 09:44:27;;;;;;;9.43;3.63;;;;;;;7.70;nan;-24032.09;5011188;28;20681;-72
2023/01/08 09:46:54;;;;;;;5.87;3.47;;;;;;;7.82;nan;-24035.47;5010887;28;20191;-71
2023/01/08 09:49:24;;;;;;;7.03;3.50;;;;;;;7.82;nan;-24035.47;5010194;28;20180;-71
2023/01/08 09:51:49;;;;;;;8.03;3.40;;;;;;;7.80;nan;-24034.91;5010986;28;20210;-71
2023/01/08 09:54:16;;;;;;;5.67;3.40;;;;;;;8.10;nan;-24043.13;5010686;28;20165;-71
2023/01/08 09:56:43;;;;;;;6.53;3.93;;;;;;;8.05;nan;-24041.84;5012886;28;20393;-71
2023/01/08 09:59:16;;;;;;;6.53;3.67;;;;;;;7.59;nan;-24028.81;5010630;28;20249;-71
2023/01/08 10:01:43;;;;;;;6.87;4.03;;;;;;;7.64;nan;-24030.38;5010556;28;20192;-70
2023/01/08 10:04:21;;;;;;;4.77;3.37;;;;;;;8.32;nan;-24049.50;5010273;28;20258;-70
2023/01/08 10:07:13;;;;;;;6.73;3.90;;;;;;;8.51;nan;-24054.59;5013829;28;20269;-71
2023/01/08 10:09:39;;;;;;;4.13;3.10;;;;;;;8.46;nan;-24053.34;5025315;28;20199;-72
2023/01/08 10:12:05;;;;;;;3.60;3.10;;;;;;;8.52;nan;-24055.03;5018988;28;20184;-71
2023/01/08 10:14:36;;;;;;;8.17;3.77;;;;;;;8.23;nan;-24046.81;5013706;28;20258;-71
2023/01/08 10:17:33;;;;;;;6.20;3.63;;;;;;;8.71;nan;-24060.41;5013803;28;20168;-69
2023/01/08 10:19:59;;;;;;;10.50;3.73;;;;;;;8.68;nan;-24059.56;5014035;28;20258;-70
2023/01/08 10:22:30;;;;;;;7.38;3.92;;;;;;;8.82;nan;-24063.38;5013870;28;20659;-70
2023/01/08 10:25:05;;;;;;;5.83;3.60;;;;;;;8.91;nan;-24065.78;5013199;28;20163;-70
2023/01/08 10:27:31;;;;;;;6.33;3.97;;;;;;;9.10;nan;-24071.16;5013811;28;20167;-71
2023/01/08 10:30:05;;;;;;;6.03;3.40;;;;;;;8.69;nan;-24059.69;5013755;28;20180;-71
2023/01/08 10:32:35;;;;;;;6.43;3.80;;;;;;;9.18;nan;-24073.56;5012550;28;20254;-71
2023/01/08 10:35:06;;;;;;;4.38;3.17;;;;;;;9.14;nan;-24072.28;5013531;28;20331;-71
2023/01/08 10:37:38;;;;;;;6.53;3.72;;;;;;;8.93;nan;-24066.34;5013617;28;20628;-71
2023/01/08 10:40:25;;;;;;;4.68;3.20;;;;;;;9.22;nan;-24074.56;5014254;28;20211;-71
2023/01/08 10:42:52;;;;;;;6.80;3.50;;;;;;;8.93;nan;-24066.34;5012880;28;20656;-71
2023/01/08 10:45:26;;;;;;;3.65;3.15;;;;;;;9.28;nan;-24076.25;5013585;28;20195;-71
2023/01/08 10:47:57;;;;;;;5.65;4.15;;;;;;;9.16;nan;-24072.84;5013307;28;20662;-71
2023/01/08 10:50:28;;;;;;;6.65;3.72;;;;;;;8.91;nan;-24065.94;5013264;28;20180;-70
2023/01/08 10:53:00;;;;;;;7.20;4.38;;;;;;;9.22;nan;-24074.69;5013147;28;20239;-72
2023/01/08 10:55:36;;;;;;;5.07;3.35;;;;;;;9.26;nan;-24075.69;5013541;28;20170;-71
2023/01/08 10:58:19;;;;;;;10.75;3.88;;;;;;;8.96;nan;-24067.34;5013470;28;20198;-71
2023/01/08 11:00:45;;;;;;;6.28;3.20;;;;;;;9.21;nan;-24074.41;5013349;28;20204;-71
2023/01/08 11:03:23;;;;;;;7.15;3.60;;;;;;;9.12;nan;-24071.88;5013571;28;20180;-71
2023/01/08 11:05:49;;;;;;;7.33;3.63;;;;;;;9.03;nan;-24069.31;5013160;28;20262;-71
2023/01/08 11:08:20;;;;;;;4.47;3.47;;;;;;;8.82;nan;-24063.53;5013632;28;20176;-70
2023/01/08 11:10:54;;;;;;;6.43;3.95;;;;;;;9.14;nan;-24072.28;5012938;28;20607;-71
2023/01/08 11:13:20;;;;;;;7.93;4.47;;;;;;;8.91;nan;-24065.78;5013419;28;20156;-71
2023/01/08 11:16:00;;;;;;;4.97;3.58;;;;;;;9.13;nan;-24072.16;5012791;28;20234;-69
2023/01/08 11:18:27;;;;;;;5.28;3.13;;;;;;;9.71;nan;-24088.41;5013063;28;20172;-69
2023/01/08 11:21:04;;;;;;;7.90;3.72;;;;;;;9.76;nan;-24089.81;5012841;28;20200;-70
2023/01/08 11:23:30;;;;;;;5.05;3.30;;;;;;;9.51;nan;-24082.75;5011276;28;20188;-71
2023/01/08 11:25:58;;;;;;;5.75;3.58;;;;;;;9.55;nan;-24083.88;5015660;28;20222;-70
2023/01/08 11:28:55;;;;;;;5.60;3.35;;;;;;;9.36;nan;-24078.38;5013345;28;20219;-71
2023/01/08 11:31:49;;;;;;;3.33;2.88;;;;;;;9.37;nan;-24078.78;5012718;28;20216;-71
2023/01/08 11:34:23;;;;;;;5.22;3.30;;;;;;;9.74;nan;-24089.09;5012527;28;20221;-72
2023/01/08 11:36:55;;;;;;;5.32;3.42;;;;;;;9.85;nan;-24092.22;5013291;28;20164;-71
2023/01/08 11:39:21;;;;;;;5.43;3.42;;;;;;;10.17;nan;-24101.25;5013737;28;20172;-71
2023/01/08 11:42:02;;;;;;;6.15;3.75;;;;;;;10.07;nan;-24098.28;5012510;28;20183;-71
2023/01/08 11:44:46;;;;;;;8.75;3.83;;;;;;;10.06;nan;-24098.16;5012486;28;20234;-72
2023/01/08 11:47:40;;;;;;;5.05;3.08;;;;;;;10.19;nan;-24101.69;5011450;28;20229;-73
2023/01/08 11:50:26;;;;;;;6.35;3.70;;;;;;;10.33;nan;-24105.63;5010808;28;20192;-70
2023/01/08 11:53:02;;;;;;;6.13;3.70;;;;;;;10.44;nan;-24108.59;5011441;28;20168;-70